Time;durP1;ratioP1;P1;durP2;ratioP2;P2;SDS_P1;SDS_P2;PMS_P1;PMS_P2;Temp;Humidity;BMP_temperature;BMP_pressure;BME280_temperature;BME280_humidity;BME280_pressure;Samples;Min_cycle;Max_cycle;Signal;HPM_P1;HPM_P2
2020/12/09 00:01:20;;;;;;;57.80;25.73;;;2.70;99.90;;;;;;5049412;28;20952;-51
2020/12/09 00:03:46;;;;;;;57.20;25.40;;;5.20;99.90;;;;;;5080695;28;20408;-52
2020/12/09 00:06:12;;;;;;;53.15;25.40;;;3.40;99.90;;;;;;5048640;28;20879;-52
2020/12/09 00:08:38;;;;;;;52.13;25.13;;;3.80;99.90;;;;;;5049767;28;20389;-59
2020/12/09 00:11:04;;;;;;;53.17;24.33;;;3.70;99.90;;;;;;5047977;28;20874;-52
2020/12/09 00:13:30;;;;;;;47.22;24.08;;;5.50;99.90;;;;;;5049758;28;20374;-52
2020/12/09 00:15:56;;;;;;;51.85;24.92;;;3.00;99.90;;;;;;5047332;28;20409;-51
2020/12/09 00:18:21;;;;;;;57.10;25.20;;;5.50;99.90;;;;;;5048638;28;20450;-52
2020/12/09 00:20:47;;;;;;;56.60;26.23;;;3.10;99.90;;;;;;5049505;28;20456;-52
2020/12/09 00:23:13;;;;;;;53.43;24.63;;;5.00;99.90;;;;;;5048073;28;20397;-51
2020/12/09 00:25:39;;;;;;;54.28;26.63;;;2.80;99.90;;;;;;5049829;28;20380;-58
2020/12/09 00:28:05;;;;;;;56.05;27.88;;;2.70;99.90;;;;;;5040202;28;20433;-52
2020/12/09 00:30:31;;;;;;;56.10;26.35;;;3.80;99.90;;;;;;5048275;28;20428;-51
2020/12/09 00:32:57;;;;;;;57.53;26.77;;;2.60;99.90;;;;;;5047662;28;20468;-52
2020/12/09 00:35:23;;;;;;;56.20;25.90;;;2.60;99.90;;;;;;5049245;28;20428;-51
2020/12/09 00:37:48;;;;;;;52.88;26.05;;;5.20;99.90;;;;;;5047528;28;20500;-53
2020/12/09 00:40:14;;;;;;;60.53;25.70;;;5.10;99.90;;;;;;5049873;28;20845;-52
2020/12/09 00:42:40;;;;;;;53.20;25.13;;;4.60;99.90;;;;;;5049763;28;20388;-58
2020/12/09 00:45:06;;;;;;;50.95;25.02;;;3.50;99.90;;;;;;5048211;28;20785;-52
2020/12/09 00:47:32;;;;;;;55.70;25.40;;;2.70;99.90;;;;;;5049115;28;20419;-55
2020/12/09 00:49:58;;;;;;;52.87;25.00;;;2.70;99.90;;;;;;5047980;28;20685;-52
2020/12/09 00:52:30;;;;;;;51.78;25.65;;;2.80;99.90;;;;;;5048075;28;20411;-52
2020/12/09 00:54:56;;;;;;;54.90;25.80;;;2.70;99.90;;;;;;5048472;28;20398;-52
2020/12/09 00:57:22;;;;;;;58.20;25.63;;;2.60;99.90;;;;;;5048174;28;20443;-52
2020/12/09 00:59:48;;;;;;;52.65;25.55;;;3.40;99.90;;;;;;5048897;28;20382;-52
2020/12/09 01:02:14;;;;;;;56.03;26.35;;;2.60;99.90;;;;;;5047589;28;20925;-52
2020/12/09 01:04:40;;;;;;;49.83;24.42;;;4.30;99.90;;;;;;5048967;28;20460;-58
2020/12/09 01:07:05;;;;;;;50.60;24.90;;;2.80;99.90;;;;;;5048514;28;20459;-52
2020/12/09 01:09:31;;;;;;;49.87;24.83;;;5.10;99.90;;;;;;5048510;28;20413;-52
2020/12/09 01:12:03;;;;;;;56.08;24.98;;;3.90;99.90;;;;;;5047464;28;20407;-52
2020/12/09 01:14:30;;;;;;;54.53;24.90;;;2.90;99.90;;;;;;5047688;28;20401;-52
2020/12/09 01:16:59;;;;;;;47.20;24.40;;;2.90;99.90;;;;;;5048835;28;20386;-52
2020/12/09 01:19:26;;;;;;;52.55;24.77;;;2.80;99.90;;;;;;5047976;28;20489;-52
2020/12/09 01:21:52;;;;;;;57.58;26.85;;;2.80;99.90;;;;;;5048358;28;20400;-52
2020/12/09 01:24:17;;;;;;;52.78;25.40;;;5.50;99.90;;;;;;5048629;28;20398;-52
2020/12/09 01:26:44;;;;;;;53.23;26.10;;;4.20;99.90;;;;;;5051989;28;20456;-52
2020/12/09 01:29:09;;;;;;;54.43;25.73;;;3.00;99.90;;;;;;5052242;28;20421;-52
2020/12/09 01:31:35;;;;;;;49.10;25.03;;;5.60;99.90;;;;;;5051170;28;20492;-52
2020/12/09 01:34:01;;;;;;;55.78;26.90;;;3.50;99.90;;;;;;5052316;28;20389;-52
2020/12/09 01:36:27;;;;;;;52.65;25.45;;;3.80;99.90;;;;;;5053354;28;20381;-52
2020/12/09 01:38:53;;;;;;;46.05;24.52;;;3.20;99.90;;;;;;5050604;28;20759;-52
2020/12/09 01:41:19;;;;;;;49.13;25.38;;;3.20;99.90;;;;;;5053081;28;20382;-52
2020/12/09 01:43:47;;;;;;;51.70;25.13;;;5.00;99.90;;;;;;5052466;28;20435;-52
2020/12/09 01:46:26;;;;;;;51.63;25.92;;;3.30;99.90;;;;;;5051151;28;20397;-52
2020/12/09 01:48:54;;;;;;;49.37;24.10;;;5.40;99.90;;;;;;5052289;28;20551;-53
2020/12/09 01:51:20;;;;;;;52.65;25.70;;;3.40;99.90;;;;;;5051506;28;20401;-52
2020/12/09 01:53:47;;;;;;;55.27;28.40;;;3.70;99.90;;;;;;5050075;28;20405;-52
2020/12/09 01:56:12;;;;;;;49.30;24.23;;;4.30;99.90;;;;;;5052743;28;20380;-51
2020/12/09 01:58:38;;;;;;;52.40;25.60;;;5.30;99.90;;;;;;5051300;28;20482;-52
2020/12/09 02:01:04;;;;;;;46.37;23.93;;;4.70;99.90;;;;;;5052836;28;20390;-52
2020/12/09 02:03:29;;;;;;;44.25;23.25;;;3.40;99.90;;;;;;5050791;28;20415;-52
2020/12/09 02:05:55;;;;;;;46.22;23.02;;;5.70;99.90;;;;;;5052264;28;20409;-52
2020/12/09 02:08:21;;;;;;;48.65;24.10;;;3.50;99.90;;;;;;5051791;28;20855;-52
2020/12/09 02:11:01;;;;;;;51.63;25.23;;;4.00;99.90;;;;;;5052194;28;20496;-52
2020/12/09 02:13:31;;;;;;;54.42;26.83;;;3.50;99.90;;;;;;5051593;28;20871;-52
2020/12/09 02:16:00;;;;;;;51.08;25.60;;;3.70;99.90;;;;;;5050493;28;20412;-53
2020/12/09 02:18:27;;;;;;;54.88;26.52;;;3.30;99.90;;;;;;5051814;28;20381;-53
2020/12/09 02:20:53;;;;;;;55.55;27.63;;;3.20;99.90;;;;;;5051893;28;20421;-52
2020/12/09 02:23:19;;;;;;;56.13;27.08;;;3.10;99.90;;;;;;5050772;28;20476;-52
2020/12/09 02:25:45;;;;;;;54.50;26.83;;;3.00;99.90;;;;;;5049327;28;20540;-52
2020/12/09 02:28:11;;;;;;;53.03;26.02;;;3.00;99.90;;;;;;5050811;28;20484;-52
2020/12/09 02:30:37;;;;;;;53.97;25.30;;;3.10;99.90;;;;;;5050248;28;20427;-52
2020/12/09 02:33:03;;;;;;;57.70;26.67;;;3.20;99.90;;;;;;5051062;28;20405;-52
2020/12/09 02:35:28;;;;;;;55.80;27.20;;;3.60;99.90;;;;;;5049234;28;20520;-52
2020/12/09 02:37:54;;;;;;;50.93;26.80;;;3.30;99.90;;;;;;5051152;28;20879;-52
2020/12/09 02:40:23;;;;;;;56.08;25.52;;;4.60;99.90;;;;;;5051933;28;20391;-51
2020/12/09 02:42:49;;;;;;;53.97;26.80;;;3.80;99.90;;;;;;5050676;28;20859;-52
2020/12/09 02:45:15;;;;;;;54.28;26.58;;;5.40;99.90;;;;;;5051728;28;20731;-52
2020/12/09 02:47:42;;;;;;;54.13;24.52;;;3.20;99.90;;;;;;5051690;28;20385;-58
2020/12/09 02:50:07;;;;;;;49.20;24.20;;;3.30;99.90;;;;;;5051759;28;20472;-52
2020/12/09 02:52:33;;;;;;;51.90;25.00;;;5.30;99.90;;;;;;5052243;28;20404;-51
2020/12/09 02:54:59;;;;;;;48.70;23.98;;;5.60;99.90;;;;;;5050133;28;20905;-53
2020/12/09 02:57:24;;;;;;;50.87;24.37;;;3.50;99.90;;;;;;5051514;28;20382;-53
2020/12/09 02:59:50;;;;;;;49.30;24.70;;;3.50;99.90;;;;;;5050802;28;20424;-54
2020/12/09 03:02:16;;;;;;;49.60;24.40;;;3.60;99.90;;;;;;5051781;28;20389;-52
2020/12/09 03:04:41;;;;;;;51.63;25.67;;;3.70;99.90;;;;;;5051079;28;20377;-55
2020/12/09 03:07:07;;;;;;;47.20;24.33;;;3.70;99.90;;;;;;5051765;28;20377;-51
2020/12/09 03:09:32;;;;;;;52.38;25.73;;;5.20;99.90;;;;;;5050849;28;20416;-53
2020/12/09 03:11:58;;;;;;;53.37;24.70;;;3.70;99.90;;;;;;5051210;28;20413;-53
2020/12/09 03:14:24;;;;;;;50.70;25.95;;;3.80;99.90;;;;;;5051621;28;20405;-52
2020/12/09 03:16:49;;;;;;;53.63;25.70;;;3.80;99.90;;;;;;5050687;28;20414;-53
2020/12/09 03:19:15;;;;;;;50.60;25.73;;;3.80;99.90;;;;;;5051546;28;20839;-52
2020/12/09 03:21:41;;;;;;;49.80;26.00;;;3.80;99.90;;;;;;5051273;28;20404;-59
2020/12/09 03:24:07;;;;;;;52.28;25.73;;;3.80;99.90;;;;;;5050656;28;20386;-52
2020/12/09 03:26:33;;;;;;;58.70;27.52;;;4.70;99.90;;;;;;5050933;28;20377;-52
2020/12/09 03:28:59;;;;;;;55.22;25.17;;;3.50;99.90;;;;;;5049707;28;20540;-52
2020/12/09 03:31:25;;;;;;;54.35;25.05;;;4.50;99.90;;;;;;5050601;28;20735;-52
2020/12/09 03:33:50;;;;;;;58.30;26.65;;;5.00;99.90;;;;;;5050345;28;20381;-52
2020/12/09 03:36:17;;;;;;;53.70;25.97;;;3.40;99.90;;;;;;5050943;28;20716;-52
2020/12/09 03:38:43;;;;;;;58.17;26.15;;;4.70;99.90;;;;;;5050562;28;20409;-58
2020/12/09 03:41:09;;;;;;;56.63;27.48;;;3.30;99.90;;;;;;5050439;28;20433;-52
2020/12/09 03:43:34;;;;;;;64.18;28.67;;;3.30;99.90;;;;;;5050458;28;20822;-52
2020/12/09 03:46:00;;;;;;;63.00;29.30;;;3.10;99.90;;;;;;5049708;28;20382;-52
2020/12/09 03:48:26;;;;;;;60.63;28.83;;;3.00;99.90;;;;;;5050884;28;20451;-52
2020/12/09 03:50:52;;;;;;;64.63;30.73;;;3.00;99.90;;;;;;5049643;28;20441;-51
2020/12/09 03:53:17;;;;;;;64.05;27.85;;;3.00;99.90;;;;;;5050520;28;20694;-52
2020/12/09 03:55:43;;;;;;;58.13;27.42;;;4.30;99.90;;;;;;5050027;28;20384;-52
2020/12/09 03:58:09;;;;;;;66.10;29.93;;;3.20;99.90;;;;;;5050514;28;20399;-52
2020/12/09 04:00:34;;;;;;;64.83;29.27;;;3.10;99.90;;;;;;5050145;28;20756;-52
2020/12/09 04:03:00;;;;;;;61.75;28.60;;;3.50;99.90;;;;;;5049713;28;20436;-52
2020/12/09 04:05:25;;;;;;;67.63;31.00;;;3.10;99.90;;;;;;5049095;28;20415;-52
2020/12/09 04:07:51;;;;;;;68.23;30.00;;;3.10;99.90;;;;;;5049525;28;20432;-52
2020/12/09 04:10:17;;;;;;;66.38;29.90;;;3.00;99.90;;;;;;5050418;28;20965;-51
2020/12/09 04:12:43;;;;;;;69.20;31.20;;;2.90;99.90;;;;;;5049858;28;20377;-59
2020/12/09 04:15:10;;;;;;;67.93;30.30;;;5.60;99.90;;;;;;5048359;28;20396;-52
2020/12/09 04:17:36;;;;;;;68.45;29.73;;;4.90;99.90;;;;;;5050398;28;20370;-52
2020/12/09 04:20:02;;;;;;;65.97;30.27;;;4.40;99.90;;;;;;5049360;28;20400;-52
2020/12/09 04:22:28;;;;;;;70.43;31.83;;;2.90;99.90;;;;;;5049707;28;20438;-52
2020/12/09 04:24:53;;;;;;;71.03;31.10;;;4.00;99.90;;;;;;5049205;28;20880;-52
2020/12/09 04:27:19;;;;;;;70.47;31.83;;;4.20;99.90;;;;;;5049748;28;20782;-51
2020/12/09 04:29:45;;;;;;;68.15;31.23;;;2.90;99.90;;;;;;5049614;28;20401;-58
2020/12/09 04:32:11;;;;;;;76.90;33.28;;;2.90;99.90;;;;;;5049917;28;20727;-51
2020/12/09 04:34:37;;;;;;;74.05;33.13;;;5.10;99.90;;;;;;5049761;28;20432;-52
2020/12/09 04:37:03;;;;;;;69.38;31.55;;;3.20;99.90;;;;;;5046942;28;20895;-57
2020/12/09 04:39:28;;;;;;;77.30;33.65;;;3.80;99.90;;;;;;5048664;28;20393;-52
2020/12/09 04:41:54;;;;;;;69.03;31.15;;;5.40;99.90;;;;;;5048582;28;20863;-55
2020/12/09 04:44:21;;;;;;;76.20;32.67;;;3.30;99.90;;;;;;5050252;28;20455;-52
2020/12/09 04:46:49;;;;;;;72.00;32.55;;;2.90;99.90;;;;;;5049068;28;20378;-55
2020/12/09 04:49:20;;;;;;;72.32;31.15;;;4.20;99.90;;;;;;5048371;28;20490;-51
2020/12/09 04:52:07;;;;;;;71.32;33.28;;;2.90;99.90;;;;;;5049079;28;20397;-58
2020/12/09 04:54:45;;;;;;;71.90;32.20;;;2.90;99.90;;;;;;5048868;28;20393;-51
2020/12/09 04:57:46;;;;;;;68.43;32.10;;;5.40;99.90;;;;;;5029335;28;20917;-53
2020/12/09 05:00:13;;;;;;;70.07;31.92;;;2.90;99.90;;;;;;5045231;28;20476;-52
2020/12/09 05:02:48;;;;;;;75.00;32.80;;;3.50;99.90;;;;;;5053891;28;20378;-57
2020/12/09 05:05:22;;;;;;;70.22;31.85;;;2.90;99.90;;;;;;5053935;28;20384;-53
2020/12/09 05:07:54;;;;;;;69.15;30.20;;;2.90;99.90;;;;;;5052624;28;20458;-54
2020/12/09 05:10:24;;;;;;;74.20;32.45;;;3.90;99.90;;;;;;5069247;28;20566;-52
2020/12/09 05:12:51;;;;;;;77.00;33.05;;;2.90;99.90;;;;;;5053740;28;20455;-52
2020/12/09 05:15:24;;;;;;;67.30;31.23;;;5.40;99.90;;;;;;5052195;28;20387;-54
2020/12/09 05:18:07;;;;;;;74.63;33.65;;;3.00;99.90;;;;;;5047879;28;20388;-52
2020/12/09 05:20:35;;;;;;;67.95;32.03;;;3.10;99.90;;;;;;5042337;28;20790;-53
2020/12/09 05:23:03;;;;;;;68.10;32.10;;;4.70;99.90;;;;;;5052282;28;20393;-52
2020/12/09 05:25:30;;;;;;;69.18;31.80;;;4.30;99.90;;;;;;5049234;28;20759;-53
2020/12/09 05:27:57;;;;;;;69.18;32.17;;;4.30;99.90;;;;;;5052171;28;20396;-53
2020/12/09 05:30:40;;;;;;;67.03;31.50;;;3.00;99.90;;;;;;5050930;28;20413;-52
2020/12/09 05:33:07;;;;;;;68.97;32.03;;;3.00;99.90;;;;;;5052216;28;20405;-52
2020/12/09 05:35:33;;;;;;;72.50;32.88;;;5.30;99.90;;;;;;5051724;28;20405;-53
2020/12/09 05:38:18;;;;;;;65.22;31.75;;;3.90;99.90;;;;;;5051990;28;20392;-53
2020/12/09 05:40:45;;;;;;;66.80;29.63;;;3.00;99.90;;;;;;5037159;28;20387;-58
2020/12/09 05:43:12;;;;;;;61.42;31.00;;;3.00;99.90;;;;;;5045067;28;20413;-52
2020/12/09 05:45:39;;;;;;;61.92;29.75;;;3.10;99.90;;;;;;5053176;28;20885;-57
2020/12/09 05:48:15;;;;;;;65.50;31.75;;;3.30;99.90;;;;;;5050298;28;20695;-52
2020/12/09 05:50:46;;;;;;;65.05;30.67;;;5.40;99.90;;;;;;5052476;28;20964;-52
2020/12/09 05:53:16;;;;;;;66.80;30.85;;;3.80;99.90;;;;;;5041330;28;20386;-52
2020/12/09 05:55:43;;;;;;;69.57;29.52;;;3.00;99.90;;;;;;5075474;28;20428;-54
2020/12/09 05:58:28;;;;;;;66.15;29.48;;;4.30;99.90;;;;;;5051999;28;20401;-53
2020/12/09 06:01:11;;;;;;;63.13;27.60;;;3.00;99.90;;;;;;5050204;28;20413;-51
2020/12/09 06:03:43;;;;;;;65.50;28.90;;;2.90;99.90;;;;;;5042686;28;20422;-52
2020/12/09 06:06:14;;;;;;;67.20;28.05;;;5.50;99.90;;;;;;5045862;28;21016;-53
2020/12/09 06:08:44;;;;;;;67.03;28.87;;;3.70;99.90;;;;;;5051400;28;20419;-52
2020/12/09 06:11:12;;;;;;;54.90;26.83;;;3.00;99.90;;;;;;5043013;28;20402;-52
2020/12/09 06:13:37;;;;;;;57.17;26.10;;;5.50;99.90;;;;;;5052316;28;20847;-53
2020/12/09 06:16:05;;;;;;;57.73;27.10;;;2.90;99.90;;;;;;5049117;28;20393;-54
2020/12/09 06:18:32;;;;;;;60.72;26.83;;;3.00;99.90;;;;;;5051769;28;20385;-52
2020/12/09 06:20:59;;;;;;;54.38;26.63;;;4.00;99.90;;;;;;5051005;28;20424;-53
2020/12/09 06:23:27;;;;;;;64.82;27.83;;;5.00;99.90;;;;;;5050939;28;20899;-52
2020/12/09 06:25:55;;;;;;;60.97;27.83;;;5.30;99.90;;;;;;5057024;28;20401;-53
2020/12/09 06:28:22;;;;;;;58.45;27.10;;;3.10;99.90;;;;;;5050588;28;20795;-52
2020/12/09 06:30:53;;;;;;;56.05;26.77;;;5.80;99.90;;;;;;5051440;28;20405;-59
2020/12/09 06:33:40;;;;;;;58.50;26.70;;;3.20;99.90;;;;;;5050305;28;20417;-53
2020/12/09 06:36:10;;;;;;;61.08;26.95;;;3.10;99.90;;;;;;5051081;28;20386;-52
2020/12/09 06:38:36;;;;;;;59.60;27.30;;;3.10;99.90;;;;;;5050891;28;20393;-53
2020/12/09 06:41:04;;;;;;;57.90;27.80;;;3.20;99.90;;;;;;5049951;28;20393;-52
2020/12/09 06:43:31;;;;;;;61.40;25.73;;;4.10;99.90;;;;;;5051923;28;20473;-52
2020/12/09 06:45:56;;;;;;;64.25;29.17;;;5.10;99.90;;;;;;5048874;28;20879;-54
2020/12/09 06:48:24;;;;;;;61.88;28.55;;;4.90;99.90;;;;;;5049403;28;20404;-53
2020/12/09 06:50:50;;;;;;;58.45;27.67;;;3.70;99.90;;;;;;5049835;28;20417;-53
2020/12/09 06:53:18;;;;;;;60.08;27.02;;;3.80;99.90;;;;;;5051848;28;20800;-53
2020/12/09 06:55:45;;;;;;;58.80;26.47;;;3.30;99.90;;;;;;5049476;28;20476;-53
2020/12/09 06:58:28;;;;;;;59.47;27.77;;;2.30;99.90;;;;;;5042112;28;20451;-53
2020/12/09 07:01:09;;;;;;;50.67;25.98;;;4.10;99.90;;;;;;5048028;28;20460;-52
2020/12/09 07:03:39;;;;;;;56.70;26.65;;;3.40;99.90;;;;;;5051073;28;20484;-53
2020/12/09 07:06:16;;;;;;;53.05;25.08;;;5.10;99.90;;;;;;5049647;28;20436;-54
2020/12/09 07:08:46;;;;;;;55.85;26.48;;;3.60;99.90;;;;;;5050913;28;20381;-52
2020/12/09 07:11:12;;;;;;;53.23;25.83;;;5.80;99.90;;;;;;5048531;28;20436;-55
2020/12/09 07:13:37;;;;;;;57.33;27.97;;;4.10;99.90;;;;;;5051208;28;20424;-53
2020/12/09 07:16:03;;;;;;;57.63;26.48;;;4.50;99.90;;;;;;5050334;28;20373;-56
2020/12/09 07:18:29;;;;;;;59.15;27.50;;;3.50;99.90;;;;;;5049673;28;20392;-52
2020/12/09 07:20:58;;;;;;;60.30;26.97;;;4.10;99.90;;;;;;5050190;28;20385;-54
2020/12/09 07:23:23;;;;;;;65.78;28.52;;;5.30;99.90;;;;;;5048484;28;20871;-53
2020/12/09 07:25:49;;;;;;;60.00;27.05;;;3.40;99.90;;;;;;5049695;28;20652;-59
2020/12/09 07:28:15;;;;;;;58.22;28.08;;;3.40;99.90;;;;;;5048533;28;20429;-52
2020/12/09 07:30:44;;;;;;;55.90;28.67;;;3.90;99.90;;;;;;5050980;28;20414;-52
2020/12/09 07:33:15;;;;;;;57.25;27.98;;;3.50;99.90;;;;;;5047956;28;20406;-52
2020/12/09 07:35:42;;;;;;;61.00;28.02;;;3.60;99.90;;;;;;5048635;28;20960;-53
2020/12/09 07:38:08;;;;;;;63.38;28.77;;;3.80;99.90;;;;;;5048238;28;21028;-52
2020/12/09 07:40:35;;;;;;;64.07;28.48;;;3.60;99.90;;;;;;5049146;28;20397;-52
2020/12/09 07:43:10;;;;;;;54.80;27.80;;;3.70;99.90;;;;;;5049519;28;20925;-52
2020/12/09 07:45:41;;;;;;;61.80;29.07;;;3.60;99.90;;;;;;5045455;28;20394;-52
2020/12/09 07:48:12;;;;;;;62.27;29.13;;;3.50;99.90;;;;;;5049615;28;20469;-52
2020/12/09 07:50:39;;;;;;;59.75;29.13;;;3.50;99.90;;;;;;5048263;28;20569;-52
2020/12/09 07:53:11;;;;;;;58.60;29.25;;;3.70;99.90;;;;;;5047567;28;20413;-53
2020/12/09 07:55:37;;;;;;;62.58;31.33;;;3.50;99.90;;;;;;5049262;28;20800;-52
2020/12/09 07:58:14;;;;;;;69.03;33.33;;;3.50;99.90;;;;;;5049529;28;20445;-55
2020/12/09 08:00:50;;;;;;;71.40;34.20;;;3.50;99.90;;;;;;5048429;28;20406;-52
2020/12/09 08:03:22;;;;;;;64.00;31.10;;;3.50;99.90;;;;;;5049942;28;20807;-52
2020/12/09 08:05:48;;;;;;;61.30;29.40;;;3.60;99.90;;;;;;5047913;28;20405;-58
2020/12/09 08:08:15;;;;;;;64.55;29.30;;;4.20;99.90;;;;;;5048903;28;20386;-53
2020/12/09 08:10:43;;;;;;;64.65;29.55;;;3.70;99.90;;;;;;5048785;28;20409;-52
2020/12/09 08:13:12;;;;;;;62.50;31.45;;;3.70;99.90;;;;;;5034791;28;20399;-52
2020/12/09 08:15:44;;;;;;;64.25;29.67;;;3.60;99.90;;;;;;5049691;28;20905;-52
2020/12/09 08:18:29;;;;;;;64.25;29.67;;;3.60;99.90;;;;;;5047644;28;20408;-52
2020/12/09 08:20:55;;;;;;;63.07;30.50;;;5.30;99.90;;;;;;5048720;28;20405;-52
2020/12/09 08:23:22;;;;;;;66.53;29.30;;;3.70;99.90;;;;;;5047963;28;20423;-53
2020/12/09 08:25:53;;;;;;;65.55;31.00;;;3.60;99.90;;;;;;5049013;28;20927;-58
2020/12/09 08:28:26;;;;;;;61.03;28.65;;;3.90;99.90;;;;;;5049986;28;20405;-54
2020/12/09 08:30:53;;;;;;;58.65;27.65;;;3.70;99.90;;;;;;5047237;28;20498;-52
2020/12/09 08:33:21;;;;;;;63.90;28.85;;;3.70;99.90;;;;;;5049044;28;20867;-53
2020/12/09 08:35:58;;;;;;;60.08;30.13;;;3.80;99.90;;;;;;5047100;28;20894;-59
2020/12/09 08:38:51;;;;;;;61.17;30.50;;;3.80;99.90;;;;;;5048316;28;20405;-52
2020/12/09 08:41:37;;;;;;;59.67;28.40;;;3.80;99.90;;;;;;5049493;28;20425;-52
2020/12/09 08:44:06;;;;;;;60.55;29.70;;;4.80;99.90;;;;;;5046711;28;20463;-59
2020/12/09 08:46:33;;;;;;;64.00;29.73;;;3.70;99.90;;;;;;5049500;28;20859;-53
2020/12/09 08:48:59;;;;;;;59.63;29.55;;;3.70;99.90;;;;;;5046953;28;20408;-52
2020/12/09 08:51:28;;;;;;;61.63;28.83;;;3.70;99.90;;;;;;5049139;28;20403;-52
2020/12/09 08:53:57;;;;;;;63.72;30.17;;;3.70;99.90;;;;;;5046956;28;20410;-52
2020/12/09 08:56:30;;;;;;;59.15;28.85;;;3.70;99.90;;;;;;5048529;28;20445;-52
2020/12/09 08:58:57;;;;;;;64.43;30.10;;;3.80;99.90;;;;;;5047002;28;20490;-54
2020/12/09 09:01:23;;;;;;;64.80;30.07;;;3.80;99.90;;;;;;5049375;28;20517;-52
2020/12/09 09:03:54;;;;;;;64.43;30.43;;;3.90;99.90;;;;;;5047446;28;20880;-60
2020/12/09 09:06:20;;;;;;;58.90;28.92;;;3.90;99.90;;;;;;5049230;28;20408;-52
2020/12/09 09:08:46;;;;;;;59.88;29.30;;;3.90;99.90;;;;;;5046374;28;20405;-52
2020/12/09 09:11:12;;;;;;;61.92;30.13;;;3.90;99.90;;;;;;5048615;28;20508;-52
2020/12/09 09:13:38;;;;;;;57.50;29.23;;;4.00;99.90;;;;;;5047685;28;20480;-52
2020/12/09 09:16:10;;;;;;;55.90;28.35;;;3.90;99.90;;;;;;5046458;28;20443;-52
2020/12/09 09:18:36;;;;;;;64.50;28.50;;;3.80;99.90;;;;;;5054291;28;20386;-52
2020/12/09 09:21:02;;;;;;;56.25;28.48;;;3.90;99.90;;;;;;5045917;28;20404;-52
2020/12/09 09:23:28;;;;;;;61.15;30.75;;;4.00;99.90;;;;;;5049133;28;20386;-52
2020/12/09 09:25:54;;;;;;;60.72;28.98;;;4.00;99.90;;;;;;5048473;28;20384;-52
2020/12/09 09:28:20;;;;;;;61.60;29.10;;;4.10;99.90;;;;;;5047092;28;20429;-52
2020/12/09 09:30:45;;;;;;;53.87;27.93;;;4.00;99.90;;;;;;5048332;28;20405;-52
2020/12/09 09:33:11;;;;;;;58.25;28.55;;;3.90;99.90;;;;;;5046588;28;20413;-52
2020/12/09 09:35:37;;;;;;;58.78;28.25;;;3.80;99.90;;;;;;5049018;28;20416;-53
2020/12/09 09:38:03;;;;;;;59.20;28.27;;;6.30;99.90;;;;;;5048301;28;20377;-52
2020/12/09 09:40:28;;;;;;;54.88;27.65;;;5.50;99.90;;;;;;5049493;28;20447;-52
2020/12/09 09:42:54;;;;;;;55.50;28.13;;;3.90;99.90;;;;;;5048798;28;20409;-52
2020/12/09 09:45:22;;;;;;;58.95;28.30;;;3.90;99.90;;;;;;5049976;28;20397;-52
2020/12/09 09:47:47;;;;;;;54.78;27.42;;;3.90;99.90;;;;;;5052697;28;20804;-58
2020/12/09 09:50:14;;;;;;;61.97;28.13;;;3.90;99.90;;;;;;5051960;28;20425;-52
2020/12/09 09:52:39;;;;;;;56.10;27.58;;;3.90;99.90;;;;;;5052518;28;20397;-53
2020/12/09 09:55:05;;;;;;;54.80;27.38;;;4.00;99.90;;;;;;5050658;28;20386;-52
2020/12/09 09:57:33;;;;;;;59.45;27.90;;;4.10;99.90;;;;;;5052600;28;20409;-52
2020/12/09 09:59:58;;;;;;;50.63;26.63;;;4.10;99.90;;;;;;5051467;28;20464;-52
2020/12/09 10:02:24;;;;;;;57.07;27.00;;;6.10;99.90;;;;;;5052450;28;20970;-52
2020/12/09 10:04:51;;;;;;;55.30;27.45;;;4.20;99.90;;;;;;5052112;28;20448;-59
2020/12/09 10:07:16;;;;;;;58.05;26.90;;;5.40;99.90;;;;;;5052647;28;20467;-52
2020/12/09 10:09:42;;;;;;;57.55;26.88;;;4.10;99.90;;;;;;5052589;28;20437;-52
2020/12/09 10:12:08;;;;;;;50.45;26.13;;;4.20;99.90;;;;;;5051425;28;20409;-52
2020/12/09 10:14:34;;;;;;;57.70;27.10;;;4.20;99.90;;;;;;5052375;28;20384;-54
2020/12/09 10:17:00;;;;;;;54.97;27.90;;;4.10;99.90;;;;;;5051047;28;20393;-53
2020/12/09 10:19:26;;;;;;;52.60;26.85;;;4.20;99.90;;;;;;5052259;28;20393;-52
2020/12/09 10:21:52;;;;;;;61.00;28.17;;;4.30;99.90;;;;;;5051273;28;20882;-58
2020/12/09 10:24:18;;;;;;;55.78;28.88;;;6.20;99.90;;;;;;5051941;28;20411;-52
2020/12/09 10:26:44;;;;;;;55.83;27.40;;;4.50;99.90;;;;;;5052188;28;20762;-52
2020/12/09 10:29:11;;;;;;;50.63;27.33;;;4.40;99.90;;;;;;5051077;28;20455;-52
2020/12/09 10:31:43;;;;;;;54.88;26.80;;;4.40;99.90;;;;;;5051571;28;20384;-52
2020/12/09 10:34:11;;;;;;;47.58;25.13;;;4.50;99.90;;;;;;5051500;28;20408;-52
2020/12/09 10:36:38;;;;;;;48.38;24.63;;;4.50;99.90;;;;;;5051722;28;20377;-52
2020/12/09 10:39:06;;;;;;;49.00;25.33;;;4.60;99.90;;;;;;5051099;28;20388;-53
2020/12/09 10:41:33;;;;;;;49.45;25.98;;;4.60;99.90;;;;;;5051559;28;20454;-52
2020/12/09 10:43:58;;;;;;;60.20;26.40;;;4.50;99.90;;;;;;5051280;28;20394;-53
2020/12/09 10:46:35;;;;;;;50.40;25.95;;;4.50;99.90;;;;;;5052062;28;20461;-52
2020/12/09 10:49:05;;;;;;;49.92;25.58;;;4.40;99.90;;;;;;5050821;28;20374;-52
2020/12/09 10:51:31;;;;;;;56.42;26.95;;;4.40;99.90;;;;;;5051832;28;20389;-53
2020/12/09 10:53:57;;;;;;;48.78;25.17;;;4.50;99.90;;;;;;5050800;28;20476;-52
2020/12/09 10:56:27;;;;;;;48.38;25.90;;;5.90;99.90;;;;;;5050828;28;20450;-53
2020/12/09 10:58:54;;;;;;;50.08;25.42;;;4.60;99.90;;;;;;5051132;28;20468;-60
2020/12/09 11:01:21;;;;;;;44.67;23.70;;;4.50;99.90;;;;;;5051199;28;20369;-54
2020/12/09 11:03:47;;;;;;;51.63;25.67;;;4.60;99.90;;;;;;5050756;28;20380;-55
2020/12/09 11:06:13;;;;;;;55.13;25.42;;;4.60;99.90;;;;;;5048914;28;21325;-54
2020/12/09 11:08:39;;;;;;;52.92;26.60;;;4.50;99.90;;;;;;5050703;28;20434;-54
2020/12/09 11:11:05;;;;;;;56.42;27.35;;;4.30;99.90;;;;;;5050347;28;20413;-52
2020/12/09 11:13:31;;;;;;;50.93;25.50;;;4.30;99.90;;;;;;5050994;28;20401;-52
2020/12/09 11:15:57;;;;;;;52.33;25.58;;;5.20;99.90;;;;;;5050167;28;20455;-52
2020/12/09 11:18:23;;;;;;;52.30;25.92;;;5.70;99.90;;;;;;5050833;28;20404;-52
2020/12/09 11:20:49;;;;;;;54.15;25.52;;;6.70;99.90;;;;;;5051175;28;20418;-52
2020/12/09 11:23:14;;;;;;;55.30;27.60;;;4.00;99.90;;;;;;5050275;28;20385;-52
2020/12/09 11:25:40;;;;;;;60.67;27.47;;;3.90;99.90;;;;;;5051255;28;20378;-51
2020/12/09 11:28:06;;;;;;;61.37;27.90;;;5.40;99.90;;;;;;5050001;28;20472;-52
2020/12/09 11:30:32;;;;;;;57.78;27.33;;;4.00;99.90;;;;;;5050975;28;20817;-52
2020/12/09 11:32:58;;;;;;;58.85;26.67;;;4.00;99.90;;;;;;5047505;28;20893;-54
2020/12/09 11:35:24;;;;;;;56.13;26.95;;;4.10;99.90;;;;;;5050608;28;20385;-52
2020/12/09 11:37:49;;;;;;;54.00;27.25;;;4.10;99.90;;;;;;5048904;28;21258;-57
2020/12/09 11:40:15;;;;;;;54.10;26.87;;;5.30;99.90;;;;;;5049255;28;20493;-52
2020/12/09 11:42:41;;;;;;;53.08;24.95;;;4.10;99.90;;;;;;5049310;28;20438;-52
2020/12/09 11:45:07;;;;;;;56.80;26.45;;;5.20;99.90;;;;;;5048122;28;20410;-53
2020/12/09 11:47:34;;;;;;;55.78;24.20;;;4.00;99.90;;;;;;5049412;28;20798;-51
2020/12/09 11:50:00;;;;;;;55.58;25.60;;;4.90;99.90;;;;;;5049634;28;21021;-52
2020/12/09 11:52:26;;;;;;;53.50;25.35;;;4.90;99.90;;;;;;5048311;28;20393;-52
2020/12/09 11:54:52;;;;;;;53.47;24.65;;;4.30;99.90;;;;;;5049957;28;20393;-58
2020/12/09 11:57:18;;;;;;;48.90;23.17;;;4.40;99.90;;;;;;5047896;28;20400;-52
2020/12/09 11:59:43;;;;;;;47.37;22.30;;;4.40;99.90;;;;;;5044576;28;20766;-52
2020/12/09 12:02:09;;;;;;;47.05;23.92;;;4.30;99.90;;;;;;5042332;28;20389;-52
2020/12/09 12:04:35;;;;;;;50.67;24.42;;;4.40;99.90;;;;;;5049641;28;20405;-53
2020/12/09 12:07:00;;;;;;;54.60;25.13;;;4.40;99.90;;;;;;5047355;28;20397;-52
2020/12/09 12:09:26;;;;;;;48.22;23.58;;;4.40;99.90;;;;;;5047046;28;20409;-52
2020/12/09 12:11:51;;;;;;;49.60;23.90;;;4.40;99.90;;;;;;5049291;28;20390;-58
2020/12/09 12:14:17;;;;;;;51.10;25.03;;;4.50;99.90;;;;;;5048388;28;20744;-53
2020/12/09 12:16:45;;;;;;;48.60;24.08;;;4.40;99.90;;;;;;5050406;28;20408;-52
2020/12/09 12:19:16;;;;;;;54.08;25.60;;;4.40;99.90;;;;;;5047119;28;20401;-52
2020/12/09 12:21:42;;;;;;;61.00;28.40;;;4.50;99.90;;;;;;5048539;28;20405;-52
2020/12/09 12:24:08;;;;;;;49.17;23.83;;;4.40;99.90;;;;;;5047537;28;20440;-52
2020/12/09 12:26:33;;;;;;;61.35;27.80;;;4.20;99.90;;;;;;5049867;28;20381;-52
2020/12/09 12:28:59;;;;;;;59.78;27.45;;;4.30;99.90;;;;;;5046942;28;20823;-52
2020/12/09 12:31:25;;;;;;;55.70;25.67;;;4.30;99.90;;;;;;5049428;28;20377;-52
2020/12/09 12:33:50;;;;;;;53.67;25.20;;;4.40;99.90;;;;;;5048012;28;20969;-52
2020/12/09 12:36:19;;;;;;;52.03;24.10;;;4.50;99.90;;;;;;5049140;28;20444;-52
2020/12/09 12:38:45;;;;;;;55.60;25.35;;;4.60;99.90;;;;;;5049041;28;20949;-52